sensor_id;sensor_type;location;lat;lon;timestamp;P1;durP1;ratioP1;P2;durP2;ratioP2
38034;SDS011;23841;48.524;1.342;2024-01-11T00:00:06;20.55;;;10.60;;
38034;SDS011;23841;48.524;1.342;2024-01-11T00:02:32;22.88;;;11.57;;
38034;SDS011;23841;48.524;1.342;2024-01-11T00:04:57;20.92;;;10.50;;
38034;SDS011;23841;48.524;1.342;2024-01-11T00:07:23;21.67;;;11.02;;
38034;SDS011;23841;48.524;1.342;2024-01-11T00:09:48;20.70;;;11.80;;
38034;SDS011;23841;48.524;1.342;2024-01-11T00:12:14;20.02;;;10.68;;
38034;SDS011;23841;48.524;1.342;2024-01-11T00:14:39;20.45;;;10.45;;
38034;SDS011;23841;48.524;1.342;2024-01-11T00:17:06;22.38;;;11.45;;
38034;SDS011;23841;48.524;1.342;2024-01-11T00:19:32;18.10;;;10.10;;
38034;SDS011;23841;48.524;1.342;2024-01-11T00:21:57;21.15;;;11.30;;
38034;SDS011;23841;48.524;1.342;2024-01-11T00:24:22;22.90;;;11.27;;
38034;SDS011;23841;48.524;1.342;2024-01-11T00:26:48;23.75;;;11.07;;
38034;SDS011;23841;48.524;1.342;2024-01-11T00:29:13;21.55;;;10.60;;
38034;SDS011;23841;48.524;1.342;2024-01-11T00:31:39;22.65;;;11.90;;
38034;SDS011;23841;48.524;1.342;2024-01-11T00:34:05;22.42;;;11.10;;
38034;SDS011;23841;48.524;1.342;2024-01-11T00:36:30;19.63;;;11.10;;
38034;SDS011;23841;48.524;1.342;2024-01-11T00:38:55;21.08;;;10.45;;
38034;SDS011;23841;48.524;1.342;2024-01-11T00:41:21;24.10;;;11.52;;
38034;SDS011;23841;48.524;1.342;2024-01-11T00:43:47;21.90;;;11.65;;
38034;SDS011;23841;48.524;1.342;2024-01-11T00:46:12;24.40;;;11.27;;
38034;SDS011;23841;48.524;1.342;2024-01-11T00:48:38;19.92;;;10.68;;
38034;SDS011;23841;48.524;1.342;2024-01-11T00:51:04;21.60;;;10.77;;
38034;SDS011;23841;48.524;1.342;2024-01-11T00:53:30;21.75;;;11.00;;
38034;SDS011;23841;48.524;1.342;2024-01-11T00:55:59;27.40;;;11.57;;
38034;SDS011;23841;48.524;1.342;2024-01-11T00:58:25;20.38;;;10.93;;
38034;SDS011;23841;48.524;1.342;2024-01-11T01:00:51;20.33;;;10.77;;
38034;SDS011;23841;48.524;1.342;2024-01-11T01:03:18;25.23;;;11.60;;
38034;SDS011;23841;48.524;1.342;2024-01-11T01:05:44;22.55;;;11.77;;
38034;SDS011;23841;48.524;1.342;2024-01-11T01:08:11;20.02;;;10.90;;
38034;SDS011;23841;48.524;1.342;2024-01-11T01:10:36;21.90;;;10.82;;
38034;SDS011;23841;48.524;1.342;2024-01-11T01:13:01;21.85;;;11.35;;
38034;SDS011;23841;48.524;1.342;2024-01-11T01:15:27;22.88;;;11.82;;
38034;SDS011;23841;48.524;1.342;2024-01-11T01:17:55;21.67;;;11.95;;
38034;SDS011;23841;48.524;1.342;2024-01-11T01:20:20;24.55;;;11.68;;
38034;SDS011;23841;48.524;1.342;2024-01-11T01:22:47;23.08;;;11.23;;
38034;SDS011;23841;48.524;1.342;2024-01-11T01:25:12;23.05;;;11.52;;
38034;SDS011;23841;48.524;1.342;2024-01-11T01:27:38;23.45;;;12.00;;
38034;SDS011;23841;48.524;1.342;2024-01-11T01:30:03;21.23;;;11.23;;
38034;SDS011;23841;48.524;1.342;2024-01-11T01:32:29;23.45;;;10.93;;
38034;SDS011;23841;48.524;1.342;2024-01-11T01:34:55;22.05;;;11.43;;
38034;SDS011;23841;48.524;1.342;2024-01-11T01:37:21;22.27;;;10.65;;
38034;SDS011;23841;48.524;1.342;2024-01-11T01:39:46;23.15;;;11.85;;
38034;SDS011;23841;48.524;1.342;2024-01-11T01:42:12;22.58;;;11.68;;
38034;SDS011;23841;48.524;1.342;2024-01-11T01:44:38;20.98;;;11.30;;
38034;SDS011;23841;48.524;1.342;2024-01-11T01:47:05;21.90;;;11.55;;
38034;SDS011;23841;48.524;1.342;2024-01-11T01:49:31;21.58;;;11.68;;
38034;SDS011;23841;48.524;1.342;2024-01-11T01:51:57;22.33;;;11.30;;
38034;SDS011;23841;48.524;1.342;2024-01-11T01:54:23;25.42;;;12.15;;
38034;SDS011;23841;48.524;1.342;2024-01-11T01:56:49;24.17;;;12.02;;
38034;SDS011;23841;48.524;1.342;2024-01-11T01:59:15;21.58;;;11.90;;
38034;SDS011;23841;48.524;1.342;2024-01-11T02:01:41;22.80;;;11.02;;
38034;SDS011;23841;48.524;1.342;2024-01-11T02:04:07;27.10;;;12.70;;
38034;SDS011;23841;48.524;1.342;2024-01-11T02:06:33;21.30;;;10.60;;
38034;SDS011;23841;48.524;1.342;2024-01-11T02:08:59;25.50;;;11.40;;
38034;SDS011;23841;48.524;1.342;2024-01-11T02:11:28;22.38;;;11.55;;
38034;SDS011;23841;48.524;1.342;2024-01-11T02:13:54;20.83;;;11.35;;
38034;SDS011;23841;48.524;1.342;2024-01-11T02:16:20;24.48;;;12.07;;
38034;SDS011;23841;48.524;1.342;2024-01-11T02:18:45;22.92;;;11.48;;
38034;SDS011;23841;48.524;1.342;2024-01-11T02:21:11;24.88;;;12.27;;
38034;SDS011;23841;48.524;1.342;2024-01-11T02:23:43;23.27;;;11.88;;
38034;SDS011;23841;48.524;1.342;2024-01-11T02:26:15;24.88;;;11.85;;
38034;SDS011;23841;48.524;1.342;2024-01-11T02:28:44;23.00;;;11.18;;
38034;SDS011;23841;48.524;1.342;2024-01-11T02:31:10;26.48;;;12.88;;
38034;SDS011;23841;48.524;1.342;2024-01-11T02:33:37;24.95;;;12.13;;
38034;SDS011;23841;48.524;1.342;2024-01-11T02:36:04;21.35;;;11.75;;
38034;SDS011;23841;48.524;1.342;2024-01-11T02:38:30;25.55;;;12.68;;
38034;SDS011;23841;48.524;1.342;2024-01-11T02:40:58;23.30;;;10.95;;
38034;SDS011;23841;48.524;1.342;2024-01-11T02:43:24;24.10;;;11.43;;
38034;SDS011;23841;48.524;1.342;2024-01-11T02:45:50;24.52;;;12.75;;
38034;SDS011;23841;48.524;1.342;2024-01-11T02:48:15;22.95;;;11.88;;
38034;SDS011;23841;48.524;1.342;2024-01-11T02:50:40;28.02;;;14.32;;
38034;SDS011;23841;48.524;1.342;2024-01-11T02:53:06;25.58;;;12.93;;
38034;SDS011;23841;48.524;1.342;2024-01-11T02:55:31;26.65;;;13.35;;
38034;SDS011;23841;48.524;1.342;2024-01-11T02:57:56;25.00;;;12.85;;
38034;SDS011;23841;48.524;1.342;2024-01-11T03:00:22;23.17;;;11.85;;
38034;SDS011;23841;48.524;1.342;2024-01-11T03:02:47;22.23;;;12.52;;
38034;SDS011;23841;48.524;1.342;2024-01-11T03:05:13;21.60;;;11.70;;
38034;SDS011;23841;48.524;1.342;2024-01-11T03:07:39;21.77;;;11.38;;
38034;SDS011;23841;48.524;1.342;2024-01-11T03:10:04;25.65;;;11.82;;
38034;SDS011;23841;48.524;1.342;2024-01-11T03:12:30;26.08;;;12.38;;
38034;SDS011;23841;48.524;1.342;2024-01-11T03:14:55;25.48;;;12.27;;
38034;SDS011;23841;48.524;1.342;2024-01-11T03:17:21;22.30;;;12.65;;
38034;SDS011;23841;48.524;1.342;2024-01-11T03:19:46;27.33;;;12.77;;
38034;SDS011;23841;48.524;1.342;2024-01-11T03:22:12;23.95;;;11.77;;
38034;SDS011;23841;48.524;1.342;2024-01-11T03:24:37;23.27;;;11.40;;
38034;SDS011;23841;48.524;1.342;2024-01-11T03:27:04;21.67;;;11.13;;
38034;SDS011;23841;48.524;1.342;2024-01-11T03:29:30;23.45;;;12.55;;
38034;SDS011;23841;48.524;1.342;2024-01-11T03:31:56;26.83;;;11.80;;
38034;SDS011;23841;48.524;1.342;2024-01-11T03:34:21;23.95;;;12.20;;
38034;SDS011;23841;48.524;1.342;2024-01-11T03:36:47;22.05;;;11.07;;
38034;SDS011;23841;48.524;1.342;2024-01-11T03:39:12;23.08;;;11.77;;
38034;SDS011;23841;48.524;1.342;2024-01-11T03:41:42;23.42;;;11.68;;
38034;SDS011;23841;48.524;1.342;2024-01-11T03:44:09;22.50;;;11.27;;
38034;SDS011;23841;48.524;1.342;2024-01-11T03:46:34;20.83;;;10.85;;
38034;SDS011;23841;48.524;1.342;2024-01-11T03:48:59;23.80;;;10.95;;
38034;SDS011;23841;48.524;1.342;2024-01-11T03:51:25;22.33;;;11.88;;
38034;SDS011;23841;48.524;1.342;2024-01-11T03:53:50;25.52;;;12.35;;
38034;SDS011;23841;48.524;1.342;2024-01-11T03:56:15;23.58;;;11.65;;
38034;SDS011;23841;48.524;1.342;2024-01-11T03:58:41;25.08;;;12.80;;
38034;SDS011;23841;48.524;1.342;2024-01-11T04:01:09;23.52;;;12.13;;
38034;SDS011;23841;48.524;1.342;2024-01-11T04:03:35;25.05;;;11.88;;
38034;SDS011;23841;48.524;1.342;2024-01-11T04:06:02;23.48;;;12.38;;
38034;SDS011;23841;48.524;1.342;2024-01-11T04:08:27;23.35;;;12.70;;
38034;SDS011;23841;48.524;1.342;2024-01-11T04:10:53;22.25;;;11.43;;
38034;SDS011;23841;48.524;1.342;2024-01-11T04:13:18;23.92;;;11.63;;
38034;SDS011;23841;48.524;1.342;2024-01-11T04:15:44;22.67;;;11.68;;
38034;SDS011;23841;48.524;1.342;2024-01-11T04:18:09;23.77;;;11.68;;
38034;SDS011;23841;48.524;1.342;2024-01-11T04:20:34;25.75;;;12.43;;
38034;SDS011;23841;48.524;1.342;2024-01-11T04:23:00;24.75;;;11.40;;
38034;SDS011;23841;48.524;1.342;2024-01-11T04:25:25;25.02;;;12.00;;
38034;SDS011;23841;48.524;1.342;2024-01-11T04:27:51;25.60;;;12.20;;
38034;SDS011;23841;48.524;1.342;2024-01-11T04:30:16;22.20;;;11.40;;
38034;SDS011;23841;48.524;1.342;2024-01-11T04:32:41;24.95;;;12.35;;
38034;SDS011;23841;48.524;1.342;2024-01-11T04:35:07;23.75;;;12.80;;
38034;SDS011;23841;48.524;1.342;2024-01-11T04:37:32;26.23;;;12.75;;
38034;SDS011;23841;48.524;1.342;2024-01-11T04:39:59;22.65;;;11.48;;
38034;SDS011;23841;48.524;1.342;2024-01-11T04:42:26;24.17;;;12.23;;
38034;SDS011;23841;48.524;1.342;2024-01-11T04:44:52;21.45;;;11.57;;
38034;SDS011;23841;48.524;1.342;2024-01-11T04:47:17;23.30;;;12.32;;
38034;SDS011;23841;48.524;1.342;2024-01-11T04:49:43;27.08;;;12.98;;
38034;SDS011;23841;48.524;1.342;2024-01-11T04:52:08;24.95;;;11.60;;
38034;SDS011;23841;48.524;1.342;2024-01-11T04:54:34;23.13;;;11.82;;
38034;SDS011;23841;48.524;1.342;2024-01-11T04:56:59;24.63;;;12.25;;
38034;SDS011;23841;48.524;1.342;2024-01-11T04:59:25;22.90;;;11.90;;
38034;SDS011;23841;48.524;1.342;2024-01-11T05:01:50;26.55;;;12.30;;
38034;SDS011;23841;48.524;1.342;2024-01-11T05:04:15;23.20;;;12.00;;
38034;SDS011;23841;48.524;1.342;2024-01-11T05:06:41;21.75;;;11.00;;
38034;SDS011;23841;48.524;1.342;2024-01-11T05:09:06;25.10;;;12.52;;
38034;SDS011;23841;48.524;1.342;2024-01-11T05:11:32;24.70;;;12.02;;
38034;SDS011;23841;48.524;1.342;2024-01-11T05:13:57;24.27;;;11.90;;
38034;SDS011;23841;48.524;1.342;2024-01-11T05:16:24;23.20;;;12.35;;
38034;SDS011;23841;48.524;1.342;2024-01-11T05:18:51;25.85;;;12.18;;
38034;SDS011;23841;48.524;1.342;2024-01-11T05:21:17;25.48;;;13.15;;
38034;SDS011;23841;48.524;1.342;2024-01-11T05:23:43;27.30;;;13.93;;
38034;SDS011;23841;48.524;1.342;2024-01-11T05:26:09;23.50;;;11.98;;
38034;SDS011;23841;48.524;1.342;2024-01-11T05:28:37;23.75;;;12.30;;
38034;SDS011;23841;48.524;1.342;2024-01-11T05:31:04;23.85;;;12.23;;
38034;SDS011;23841;48.524;1.342;2024-01-11T05:33:31;22.98;;;12.23;;
38034;SDS011;23841;48.524;1.342;2024-01-11T05:35:57;27.33;;;12.48;;
38034;SDS011;23841;48.524;1.342;2024-01-11T05:38:22;25.50;;;11.70;;
38034;SDS011;23841;48.524;1.342;2024-01-11T05:40:48;23.25;;;11.77;;
38034;SDS011;23841;48.524;1.342;2024-01-11T05:43:13;25.73;;;12.55;;
38034;SDS011;23841;48.524;1.342;2024-01-11T05:45:38;23.30;;;12.00;;
38034;SDS011;23841;48.524;1.342;2024-01-11T05:48:04;25.52;;;12.55;;
38034;SDS011;23841;48.524;1.342;2024-01-11T05:50:30;21.52;;;11.05;;
38034;SDS011;23841;48.524;1.342;2024-01-11T05:52:56;26.63;;;12.93;;
38034;SDS011;23841;48.524;1.342;2024-01-11T05:55:22;25.98;;;11.68;;
38034;SDS011;23841;48.524;1.342;2024-01-11T05:57:47;25.95;;;13.88;;
38034;SDS011;23841;48.524;1.342;2024-01-11T06:00:13;27.33;;;13.00;;
38034;SDS011;23841;48.524;1.342;2024-01-11T06:02:39;26.00;;;13.05;;
38034;SDS011;23841;48.524;1.342;2024-01-11T06:05:09;25.80;;;12.93;;
38034;SDS011;23841;48.524;1.342;2024-01-11T06:07:35;28.67;;;13.02;;
38034;SDS011;23841;48.524;1.342;2024-01-11T06:10:01;25.70;;;13.00;;
38034;SDS011;23841;48.524;1.342;2024-01-11T06:12:28;26.27;;;13.50;;
38034;SDS011;23841;48.524;1.342;2024-01-11T06:14:53;27.77;;;13.20;;
38034;SDS011;23841;48.524;1.342;2024-01-11T06:17:19;24.50;;;12.10;;
38034;SDS011;23841;48.524;1.342;2024-01-11T06:19:44;26.50;;;12.30;;
38034;SDS011;23841;48.524;1.342;2024-01-11T06:22:10;24.23;;;12.15;;
38034;SDS011;23841;48.524;1.342;2024-01-11T06:24:35;24.23;;;12.32;;
38034;SDS011;23841;48.524;1.342;2024-01-11T06:27:00;23.38;;;12.57;;
38034;SDS011;23841;48.524;1.342;2024-01-11T06:29:26;24.38;;;11.65;;
38034;SDS011;23841;48.524;1.342;2024-01-11T06:31:51;25.13;;;12.45;;
38034;SDS011;23841;48.524;1.342;2024-01-11T06:34:17;33.63;;;14.75;;
38034;SDS011;23841;48.524;1.342;2024-01-11T06:36:42;26.10;;;12.45;;
38034;SDS011;23841;48.524;1.342;2024-01-11T06:39:08;25.58;;;12.85;;
38034;SDS011;23841;48.524;1.342;2024-01-11T06:41:35;29.90;;;13.65;;
38034;SDS011;23841;48.524;1.342;2024-01-11T06:44:00;24.50;;;11.50;;
38034;SDS011;23841;48.524;1.342;2024-01-11T06:46:25;22.95;;;12.07;;
38034;SDS011;23841;48.524;1.342;2024-01-11T06:48:51;22.17;;;12.55;;
38034;SDS011;23841;48.524;1.342;2024-01-11T06:51:20;26.70;;;12.65;;
38034;SDS011;23841;48.524;1.342;2024-01-11T06:53:46;27.75;;;13.35;;
38034;SDS011;23841;48.524;1.342;2024-01-11T06:56:15;25.05;;;13.07;;
38034;SDS011;23841;48.524;1.342;2024-01-11T06:58:41;26.70;;;13.77;;
38034;SDS011;23841;48.524;1.342;2024-01-11T07:01:07;25.30;;;12.77;;
38034;SDS011;23841;48.524;1.342;2024-01-11T07:03:33;28.50;;;12.23;;
38034;SDS011;23841;48.524;1.342;2024-01-11T07:05:58;28.85;;;14.55;;
38034;SDS011;23841;48.524;1.342;2024-01-11T07:08:23;29.02;;;14.00;;
38034;SDS011;23841;48.524;1.342;2024-01-11T07:10:49;24.55;;;12.20;;
38034;SDS011;23841;48.524;1.342;2024-01-11T07:13:14;24.67;;;12.60;;
38034;SDS011;23841;48.524;1.342;2024-01-11T07:15:42;23.70;;;12.88;;
38034;SDS011;23841;48.524;1.342;2024-01-11T07:18:08;28.55;;;14.05;;
38034;SDS011;23841;48.524;1.342;2024-01-11T07:20:34;24.92;;;13.10;;
38034;SDS011;23841;48.524;1.342;2024-01-11T07:22:59;23.08;;;12.70;;
38034;SDS011;23841;48.524;1.342;2024-01-11T07:25:25;27.08;;;14.57;;
38034;SDS011;23841;48.524;1.342;2024-01-11T07:27:50;26.42;;;12.82;;
38034;SDS011;23841;48.524;1.342;2024-01-11T07:30:16;27.77;;;13.23;;
38034;SDS011;23841;48.524;1.342;2024-01-11T07:32:43;26.08;;;13.00;;
38034;SDS011;23841;48.524;1.342;2024-01-11T07:35:09;26.02;;;12.80;;
38034;SDS011;23841;48.524;1.342;2024-01-11T07:37:36;24.45;;;12.43;;
38034;SDS011;23841;48.524;1.342;2024-01-11T07:40:02;27.17;;;13.27;;
38034;SDS011;23841;48.524;1.342;2024-01-11T07:42:28;28.20;;;13.68;;
38034;SDS011;23841;48.524;1.342;2024-01-11T07:44:54;25.08;;;12.80;;
38034;SDS011;23841;48.524;1.342;2024-01-11T07:47:19;28.05;;;13.60;;
38034;SDS011;23841;48.524;1.342;2024-01-11T07:49:45;24.83;;;12.65;;
38034;SDS011;23841;48.524;1.342;2024-01-11T07:52:10;23.40;;;12.57;;
38034;SDS011;23841;48.524;1.342;2024-01-11T07:54:36;24.60;;;12.02;;
38034;SDS011;23841;48.524;1.342;2024-01-11T07:57:01;25.98;;;12.50;;
38034;SDS011;23841;48.524;1.342;2024-01-11T07:59:28;26.67;;;13.15;;
38034;SDS011;23841;48.524;1.342;2024-01-11T08:01:57;27.42;;;12.57;;
38034;SDS011;23841;48.524;1.342;2024-01-11T08:04:23;27.20;;;13.02;;
38034;SDS011;23841;48.524;1.342;2024-01-11T08:06:48;27.33;;;13.75;;
38034;SDS011;23841;48.524;1.342;2024-01-11T08:09:13;28.75;;;13.38;;
38034;SDS011;23841;48.524;1.342;2024-01-11T08:11:39;28.40;;;12.85;;
38034;SDS011;23841;48.524;1.342;2024-01-11T08:14:08;26.95;;;13.77;;
38034;SDS011;23841;48.524;1.342;2024-01-11T08:16:33;24.63;;;11.88;;
38034;SDS011;23841;48.524;1.342;2024-01-11T08:18:59;27.83;;;13.43;;
38034;SDS011;23841;48.524;1.342;2024-01-11T08:21:25;26.60;;;13.32;;
38034;SDS011;23841;48.524;1.342;2024-01-11T08:23:51;25.80;;;13.23;;
38034;SDS011;23841;48.524;1.342;2024-01-11T08:26:17;26.63;;;13.38;;
38034;SDS011;23841;48.524;1.342;2024-01-11T08:28:47;25.33;;;12.13;;
38034;SDS011;23841;48.524;1.342;2024-01-11T08:31:13;28.63;;;13.80;;
38034;SDS011;23841;48.524;1.342;2024-01-11T08:33:38;26.70;;;12.55;;
38034;SDS011;23841;48.524;1.342;2024-01-11T08:36:04;28.05;;;14.13;;
38034;SDS011;23841;48.524;1.342;2024-01-11T08:38:31;27.75;;;13.88;;
38034;SDS011;23841;48.524;1.342;2024-01-11T08:40:57;28.83;;;13.30;;
38034;SDS011;23841;48.524;1.342;2024-01-11T08:43:23;29.92;;;14.35;;
38034;SDS011;23841;48.524;1.342;2024-01-11T08:45:49;29.75;;;13.88;;
38034;SDS011;23841;48.524;1.342;2024-01-11T08:48:15;25.75;;;13.50;;
38034;SDS011;23841;48.524;1.342;2024-01-11T08:50:40;28.45;;;13.82;;
38034;SDS011;23841;48.524;1.342;2024-01-11T08:53:06;25.80;;;11.75;;
38034;SDS011;23841;48.524;1.342;2024-01-11T08:55:31;28.30;;;14.02;;
38034;SDS011;23841;48.524;1.342;2024-01-11T08:57:57;29.10;;;13.95;;
38034;SDS011;23841;48.524;1.342;2024-01-11T09:00:23;27.25;;;13.18;;
38034;SDS011;23841;48.524;1.342;2024-01-11T09:02:48;29.30;;;14.25;;
38034;SDS011;23841;48.524;1.342;2024-01-11T09:05:14;27.88;;;14.52;;
38034;SDS011;23841;48.524;1.342;2024-01-11T09:07:40;29.30;;;13.43;;
38034;SDS011;23841;48.524;1.342;2024-01-11T09:10:06;28.98;;;13.43;;
38034;SDS011;23841;48.524;1.342;2024-01-11T09:12:34;28.95;;;14.43;;
38034;SDS011;23841;48.524;1.342;2024-01-11T09:14:59;31.10;;;13.85;;
38034;SDS011;23841;48.524;1.342;2024-01-11T09:17:25;30.30;;;13.98;;
38034;SDS011;23841;48.524;1.342;2024-01-11T09:19:51;29.65;;;14.88;;
38034;SDS011;23841;48.524;1.342;2024-01-11T09:22:16;30.75;;;13.60;;
38034;SDS011;23841;48.524;1.342;2024-01-11T09:24:42;27.25;;;12.80;;
38034;SDS011;23841;48.524;1.342;2024-01-11T09:27:08;28.83;;;14.82;;
38034;SDS011;23841;48.524;1.342;2024-01-11T09:29:33;31.48;;;13.38;;
38034;SDS011;23841;48.524;1.342;2024-01-11T09:31:59;31.13;;;13.40;;
38034;SDS011;23841;48.524;1.342;2024-01-11T09:34:24;28.80;;;13.15;;
38034;SDS011;23841;48.524;1.342;2024-01-11T09:36:50;25.88;;;12.90;;
38034;SDS011;23841;48.524;1.342;2024-01-11T09:39:16;28.08;;;13.43;;
38034;SDS011;23841;48.524;1.342;2024-01-11T09:41:42;26.02;;;13.55;;
38034;SDS011;23841;48.524;1.342;2024-01-11T09:44:17;32.88;;;15.10;;
38034;SDS011;23841;48.524;1.342;2024-01-11T09:46:43;30.67;;;13.98;;
38034;SDS011;23841;48.524;1.342;2024-01-11T09:49:08;26.92;;;13.45;;
38034;SDS011;23841;48.524;1.342;2024-01-11T09:51:37;30.80;;;14.75;;
38034;SDS011;23841;48.524;1.342;2024-01-11T09:54:04;27.63;;;13.40;;
38034;SDS011;23841;48.524;1.342;2024-01-11T09:56:32;29.90;;;14.55;;
38034;SDS011;23841;48.524;1.342;2024-01-11T09:58:57;28.48;;;13.25;;
38034;SDS011;23841;48.524;1.342;2024-01-11T10:01:23;29.30;;;14.35;;
38034;SDS011;23841;48.524;1.342;2024-01-11T10:03:49;25.02;;;12.52;;
38034;SDS011;23841;48.524;1.342;2024-01-11T10:06:14;25.40;;;13.45;;
38034;SDS011;23841;48.524;1.342;2024-01-11T10:08:43;27.83;;;14.48;;
38034;SDS011;23841;48.524;1.342;2024-01-11T10:11:09;30.45;;;14.93;;
38034;SDS011;23841;48.524;1.342;2024-01-11T10:13:35;26.85;;;13.18;;
38034;SDS011;23841;48.524;1.342;2024-01-11T10:16:07;29.35;;;14.00;;
38034;SDS011;23841;48.524;1.342;2024-01-11T10:18:34;27.20;;;12.55;;
38034;SDS011;23841;48.524;1.342;2024-01-11T10:21:01;27.35;;;13.20;;
38034;SDS011;23841;48.524;1.342;2024-01-11T10:23:26;30.10;;;14.25;;
38034;SDS011;23841;48.524;1.342;2024-01-11T10:25:54;28.08;;;13.50;;
38034;SDS011;23841;48.524;1.342;2024-01-11T10:28:21;28.48;;;14.70;;
38034;SDS011;23841;48.524;1.342;2024-01-11T10:30:47;27.83;;;14.23;;
38034;SDS011;23841;48.524;1.342;2024-01-11T10:33:12;28.63;;;14.38;;
38034;SDS011;23841;48.524;1.342;2024-01-11T10:35:37;29.85;;;14.88;;
38034;SDS011;23841;48.524;1.342;2024-01-11T10:38:04;30.45;;;15.38;;
38034;SDS011;23841;48.524;1.342;2024-01-11T10:40:35;28.52;;;14.27;;
38034;SDS011;23841;48.524;1.342;2024-01-11T10:43:01;28.13;;;14.07;;
38034;SDS011;23841;48.524;1.342;2024-01-11T10:45:28;28.45;;;13.90;;
38034;SDS011;23841;48.524;1.342;2024-01-11T10:47:54;27.88;;;12.82;;
38034;SDS011;23841;48.524;1.342;2024-01-11T10:50:23;27.02;;;13.07;;
38034;SDS011;23841;48.524;1.342;2024-01-11T10:53:02;28.13;;;13.10;;
38034;SDS011;23841;48.524;1.342;2024-01-11T10:55:44;30.65;;;15.02;;
38034;SDS011;23841;48.524;1.342;2024-01-11T10:58:11;30.45;;;14.35;;
38034;SDS011;23841;48.524;1.342;2024-01-11T11:00:37;28.15;;;14.40;;
38034;SDS011;23841;48.524;1.342;2024-01-11T11:03:03;31.05;;;14.43;;
38034;SDS011;23841;48.524;1.342;2024-01-11T11:05:31;27.55;;;12.45;;
38034;SDS011;23841;48.524;1.342;2024-01-11T11:08:00;26.88;;;13.55;;
38034;SDS011;23841;48.524;1.342;2024-01-11T11:10:27;26.83;;;13.18;;
38034;SDS011;23841;48.524;1.342;2024-01-11T11:12:54;28.63;;;13.63;;
38034;SDS011;23841;48.524;1.342;2024-01-11T11:15:24;25.80;;;12.85;;
38034;SDS011;23841;48.524;1.342;2024-01-11T11:17:52;29.90;;;14.05;;
38034;SDS011;23841;48.524;1.342;2024-01-11T11:20:18;28.60;;;14.20;;
38034;SDS011;23841;48.524;1.342;2024-01-11T11:22:48;25.95;;;12.90;;
38034;SDS011;23841;48.524;1.342;2024-01-11T11:25:27;24.05;;;12.55;;
38034;SDS011;23841;48.524;1.342;2024-01-11T11:27:55;27.60;;;12.70;;
38034;SDS011;23841;48.524;1.342;2024-01-11T11:30:21;25.50;;;13.10;;
38034;SDS011;23841;48.524;1.342;2024-01-11T11:32:46;25.42;;;12.00;;
38034;SDS011;23841;48.524;1.342;2024-01-11T11:35:12;24.38;;;12.25;;
38034;SDS011;23841;48.524;1.342;2024-01-11T11:37:38;26.88;;;13.32;;
38034;SDS011;23841;48.524;1.342;2024-01-11T11:40:05;21.70;;;11.38;;
38034;SDS011;23841;48.524;1.342;2024-01-11T11:42:36;24.35;;;12.48;;
38034;SDS011;23841;48.524;1.342;2024-01-11T11:45:02;26.50;;;12.90;;
38034;SDS011;23841;48.524;1.342;2024-01-11T11:47:34;23.40;;;12.30;;
38034;SDS011;23841;48.524;1.342;2024-01-11T11:50:06;22.33;;;11.85;;
38034;SDS011;23841;48.524;1.342;2024-01-11T11:52:33;24.77;;;11.77;;
38034;SDS011;23841;48.524;1.342;2024-01-11T11:55:02;25.90;;;12.45;;
38034;SDS011;23841;48.524;1.342;2024-01-11T11:57:28;26.05;;;12.32;;
38034;SDS011;23841;48.524;1.342;2024-01-11T11:59:58;23.70;;;11.95;;
38034;SDS011;23841;48.524;1.342;2024-01-11T12:02:27;20.63;;;11.05;;
38034;SDS011;23841;48.524;1.342;2024-01-11T12:04:53;23.98;;;11.70;;
38034;SDS011;23841;48.524;1.342;2024-01-11T12:07:20;24.08;;;12.43;;
38034;SDS011;23841;48.524;1.342;2024-01-11T12:09:46;22.58;;;12.10;;
38034;SDS011;23841;48.524;1.342;2024-01-11T12:12:12;25.35;;;12.25;;
38034;SDS011;23841;48.524;1.342;2024-01-11T12:14:38;27.40;;;11.63;;
38034;SDS011;23841;48.524;1.342;2024-01-11T12:17:04;25.33;;;12.07;;
38034;SDS011;23841;48.524;1.342;2024-01-11T12:19:31;27.08;;;12.30;;
38034;SDS011;23841;48.524;1.342;2024-01-11T12:21:57;24.02;;;11.65;;
38034;SDS011;23841;48.524;1.342;2024-01-11T12:24:23;25.10;;;12.35;;
38034;SDS011;23841;48.524;1.342;2024-01-11T12:26:49;24.50;;;13.55;;
38034;SDS011;23841;48.524;1.342;2024-01-11T12:29:19;24.17;;;11.63;;
38034;SDS011;23841;48.524;1.342;2024-01-11T12:31:45;25.80;;;12.45;;
38034;SDS011;23841;48.524;1.342;2024-01-11T12:34:13;25.98;;;12.23;;
38034;SDS011;23841;48.524;1.342;2024-01-11T12:36:39;29.50;;;13.40;;
38034;SDS011;23841;48.524;1.342;2024-01-11T12:39:05;25.77;;;12.40;;
38034;SDS011;23841;48.524;1.342;2024-01-11T12:41:32;27.55;;;12.85;;
38034;SDS011;23841;48.524;1.342;2024-01-11T12:43:58;26.05;;;12.35;;
38034;SDS011;23841;48.524;1.342;2024-01-11T12:46:23;29.55;;;13.52;;
38034;SDS011;23841;48.524;1.342;2024-01-11T12:48:49;28.10;;;12.45;;
38034;SDS011;23841;48.524;1.342;2024-01-11T12:51:20;24.40;;;12.07;;
38034;SDS011;23841;48.524;1.342;2024-01-11T12:53:46;26.45;;;13.38;;
38034;SDS011;23841;48.524;1.342;2024-01-11T12:56:14;24.27;;;12.25;;
38034;SDS011;23841;48.524;1.342;2024-01-11T12:58:40;23.63;;;12.15;;
38034;SDS011;23841;48.524;1.342;2024-01-11T13:01:06;29.27;;;13.80;;
38034;SDS011;23841;48.524;1.342;2024-01-11T13:03:37;25.85;;;12.50;;
38034;SDS011;23841;48.524;1.342;2024-01-11T13:06:04;25.45;;;13.15;;
38034;SDS011;23841;48.524;1.342;2024-01-11T13:08:32;29.05;;;13.45;;
38034;SDS011;23841;48.524;1.342;2024-01-11T13:11:01;30.25;;;14.18;;
38034;SDS011;23841;48.524;1.342;2024-01-11T13:13:31;28.13;;;13.18;;
38034;SDS011;23841;48.524;1.342;2024-01-11T13:15:57;31.13;;;14.20;;
38034;SDS011;23841;48.524;1.342;2024-01-11T13:18:23;26.27;;;13.00;;
38034;SDS011;23841;48.524;1.342;2024-01-11T13:20:49;28.33;;;12.77;;
38034;SDS011;23841;48.524;1.342;2024-01-11T13:23:18;26.90;;;12.48;;
38034;SDS011;23841;48.524;1.342;2024-01-11T13:25:49;25.83;;;12.55;;
38034;SDS011;23841;48.524;1.342;2024-01-11T13:28:15;25.50;;;13.20;;
38034;SDS011;23841;48.524;1.342;2024-01-11T13:30:42;27.63;;;13.00;;
38034;SDS011;23841;48.524;1.342;2024-01-11T13:33:08;27.77;;;13.45;;
38034;SDS011;23841;48.524;1.342;2024-01-11T13:35:35;27.80;;;13.18;;
38034;SDS011;23841;48.524;1.342;2024-01-11T13:38:02;30.02;;;14.35;;
38034;SDS011;23841;48.524;1.342;2024-01-11T13:40:28;26.58;;;12.30;;
38034;SDS011;23841;48.524;1.342;2024-01-11T13:42:56;27.77;;;13.93;;
38034;SDS011;23841;48.524;1.342;2024-01-11T13:45:22;29.23;;;13.43;;
38034;SDS011;23841;48.524;1.342;2024-01-11T13:47:49;28.88;;;12.82;;
38034;SDS011;23841;48.524;1.342;2024-01-11T13:50:15;33.72;;;14.75;;
38034;SDS011;23841;48.524;1.342;2024-01-11T13:52:41;32.15;;;14.70;;
38034;SDS011;23841;48.524;1.342;2024-01-11T13:55:07;32.13;;;13.85;;
38034;SDS011;23841;48.524;1.342;2024-01-11T13:57:35;27.80;;;13.77;;
38034;SDS011;23841;48.524;1.342;2024-01-11T14:00:02;28.15;;;13.23;;
38034;SDS011;23841;48.524;1.342;2024-01-11T14:02:28;29.50;;;13.85;;
38034;SDS011;23841;48.524;1.342;2024-01-11T14:04:53;31.40;;;13.77;;
38034;SDS011;23841;48.524;1.342;2024-01-11T14:07:19;31.23;;;14.50;;
38034;SDS011;23841;48.524;1.342;2024-01-11T14:09:44;32.15;;;14.82;;
38034;SDS011;23841;48.524;1.342;2024-01-11T14:12:09;28.17;;;13.13;;
38034;SDS011;23841;48.524;1.342;2024-01-11T14:14:35;27.35;;;12.55;;